sensor_id;sensor_type;location;lat;lon;timestamp;P1;durP1;ratioP1;P2;durP2;ratioP2
77821;SDS011;67012;53.712;10.728;2023-03-01T06:48:40;27.35;;;14.20;;
77821;SDS011;67012;53.712;10.728;2023-03-01T06:51:05;26.43;;;11.53;;
77821;SDS011;67012;53.712;10.728;2023-03-01T06:53:31;12.40;;;7.20;;
77821;SDS011;67012;53.712;10.728;2023-03-01T06:55:56;21.07;;;8.73;;
77821;SDS011;67012;53.712;10.728;2023-03-01T06:58:22;14.25;;;6.80;;
77821;SDS011;67012;53.712;10.728;2023-03-01T07:00:47;21.07;;;10.70;;
77821;SDS011;67012;53.712;10.728;2023-03-01T07:03:12;13.97;;;8.07;;
77821;SDS011;67012;53.712;10.728;2023-03-01T07:05:37;18.23;;;9.10;;
77821;SDS011;67012;53.712;10.728;2023-03-01T07:08:02;16.90;;;9.47;;
77821;SDS011;67012;53.712;10.728;2023-03-01T07:10:28;20.40;;;9.20;;
77821;SDS011;67012;53.712;10.728;2023-03-01T07:12:56;19.77;;;10.00;;
77821;SDS011;67012;53.712;10.728;2023-03-01T07:17:47;17.50;;;8.85;;
77821;SDS011;67012;53.712;10.728;2023-03-01T07:20:14;21.35;;;10.07;;
77821;SDS011;67012;53.712;10.728;2023-03-01T07:22:40;19.70;;;9.80;;
77821;SDS011;67012;53.712;10.728;2023-03-01T07:25:06;21.10;;;11.23;;
77821;SDS011;67012;53.712;10.728;2023-03-01T07:27:32;21.98;;;10.30;;
77821;SDS011;67012;53.712;10.728;2023-03-01T07:29:57;21.90;;;11.17;;
77821;SDS011;67012;53.712;10.728;2023-03-01T07:32:22;20.37;;;9.83;;
77821;SDS011;67012;53.712;10.728;2023-03-01T07:34:47;23.47;;;11.37;;
77821;SDS011;67012;53.712;10.728;2023-03-01T07:37:13;21.87;;;11.17;;
77821;SDS011;67012;53.712;10.728;2023-03-01T07:39:38;16.43;;;9.13;;
77821;SDS011;67012;53.712;10.728;2023-03-01T07:42:03;23.87;;;11.07;;
77821;SDS011;67012;53.712;10.728;2023-03-01T07:44:28;24.33;;;11.30;;
77821;SDS011;67012;53.712;10.728;2023-03-01T07:46:53;21.97;;;11.47;;
77821;SDS011;67012;53.712;10.728;2023-03-01T07:49:21;25.60;;;11.52;;
77821;SDS011;67012;53.712;10.728;2023-03-01T07:51:46;61.90;;;23.00;;
77821;SDS011;67012;53.712;10.728;2023-03-01T07:54:11;37.80;;;15.50;;
77821;SDS011;67012;53.712;10.728;2023-03-01T07:56:36;26.53;;;12.43;;
77821;SDS011;67012;53.712;10.728;2023-03-01T07:59:02;21.77;;;11.13;;
77821;SDS011;67012;53.712;10.728;2023-03-01T08:01:27;159.73;;;57.30;;
77821;SDS011;67012;53.712;10.728;2023-03-01T08:03:52;61.33;;;25.77;;
77821;SDS011;67012;53.712;10.728;2023-03-01T08:06:17;35.77;;;17.07;;
77821;SDS011;67012;53.712;10.728;2023-03-01T08:08:43;25.15;;;11.40;;
77821;SDS011;67012;53.712;10.728;2023-03-01T08:11:10;42.22;;;18.70;;
77821;SDS011;67012;53.712;10.728;2023-03-01T08:13:36;66.90;;;31.65;;
77821;SDS011;67012;53.712;10.728;2023-03-01T08:16:05;29.10;;;13.97;;
77821;SDS011;67012;53.712;10.728;2023-03-01T08:18:30;42.00;;;20.65;;
77821;SDS011;67012;53.712;10.728;2023-03-01T08:21:00;46.88;;;24.85;;
77821;SDS011;67012;53.712;10.728;2023-03-01T08:23:25;40.10;;;20.55;;
77821;SDS011;67012;53.712;10.728;2023-03-01T08:25:51;20.47;;;11.47;;
77821;SDS011;67012;53.712;10.728;2023-03-01T08:28:17;19.00;;;11.07;;
77821;SDS011;67012;53.712;10.728;2023-03-01T08:30:43;26.73;;;13.90;;
77821;SDS011;67012;53.712;10.728;2023-03-01T08:33:08;27.60;;;13.97;;
77821;SDS011;67012;53.712;10.728;2023-03-01T08:35:33;21.33;;;11.23;;
77821;SDS011;67012;53.712;10.728;2023-03-01T08:37:58;23.97;;;12.97;;
77821;SDS011;67012;53.712;10.728;2023-03-01T08:40:23;24.20;;;12.73;;
77821;SDS011;67012;53.712;10.728;2023-03-01T08:42:48;26.30;;;13.93;;
77821;SDS011;67012;53.712;10.728;2023-03-01T08:45:14;21.57;;;11.73;;
77821;SDS011;67012;53.712;10.728;2023-03-01T08:47:43;21.70;;;11.68;;
77821;SDS011;67012;53.712;10.728;2023-03-01T08:50:08;28.08;;;13.88;;
77821;SDS011;67012;53.712;10.728;2023-03-01T08:52:33;22.35;;;11.77;;
77821;SDS011;67012;53.712;10.728;2023-03-01T08:54:59;26.20;;;14.23;;
77821;SDS011;67012;53.712;10.728;2023-03-01T08:57:26;21.38;;;11.77;;
77821;SDS011;67012;53.712;10.728;2023-03-01T08:59:51;19.93;;;10.77;;
77821;SDS011;67012;53.712;10.728;2023-03-01T09:02:17;22.23;;;12.13;;
77821;SDS011;67012;53.712;10.728;2023-03-01T09:04:42;22.42;;;11.05;;
77821;SDS011;67012;53.712;10.728;2023-03-01T09:07:08;22.80;;;11.60;;
77821;SDS011;67012;53.712;10.728;2023-03-01T09:09:33;23.55;;;13.07;;
77821;SDS011;67012;53.712;10.728;2023-03-01T09:11:59;16.05;;;9.35;;
77821;SDS011;67012;53.712;10.728;2023-03-01T09:14:24;18.10;;;9.50;;
77821;SDS011;67012;53.712;10.728;2023-03-01T09:16:50;20.60;;;10.60;;
77821;SDS011;67012;53.712;10.728;2023-03-01T09:19:16;17.08;;;8.90;;
77821;SDS011;67012;53.712;10.728;2023-03-01T09:21:41;17.92;;;9.40;;
77821;SDS011;67012;53.712;10.728;2023-03-01T09:24:16;15.38;;;9.75;;
77821;SDS011;67012;53.712;10.728;2023-03-01T09:26:42;14.77;;;8.43;;
77821;SDS011;67012;53.712;10.728;2023-03-01T09:29:07;17.90;;;9.52;;
77821;SDS011;67012;53.712;10.728;2023-03-01T09:31:34;15.35;;;8.40;;
77821;SDS011;67012;53.712;10.728;2023-03-01T09:33:59;15.33;;;9.53;;
77821;SDS011;67012;53.712;10.728;2023-03-01T09:36:24;18.67;;;10.40;;
77821;SDS011;67012;53.712;10.728;2023-03-01T09:43:55;14.32;;;9.27;;
77821;SDS011;67012;53.712;10.728;2023-03-01T09:46:23;19.55;;;10.45;;
77821;SDS011;67012;53.712;10.728;2023-03-01T09:48:55;17.52;;;9.43;;
77821;SDS011;67012;53.712;10.728;2023-03-01T09:51:26;18.25;;;10.57;;
77821;SDS011;67012;53.712;10.728;2023-03-01T09:53:51;15.63;;;8.13;;
77821;SDS011;67012;53.712;10.728;2023-03-01T09:56:20;16.98;;;9.93;;
77821;SDS011;67012;53.712;10.728;2023-03-01T09:58:48;30.08;;;15.13;;
77821;SDS011;67012;53.712;10.728;2023-03-01T10:03:52;12.93;;;6.85;;
77821;SDS011;67012;53.712;10.728;2023-03-01T10:06:22;12.63;;;7.63;;
77821;SDS011;67012;53.712;10.728;2023-03-01T10:11:31;14.77;;;7.73;;
77821;SDS011;67012;53.712;10.728;2023-03-01T10:16:46;20.00;;;10.37;;
77821;SDS011;67012;53.712;10.728;2023-03-01T10:19:10;13.73;;;8.23;;
77821;SDS011;67012;53.712;10.728;2023-03-01T10:21:37;15.15;;;7.75;;
77821;SDS011;67012;53.712;10.728;2023-03-01T10:24:10;16.02;;;8.18;;
77821;SDS011;67012;53.712;10.728;2023-03-01T10:26:47;19.33;;;9.70;;
77821;SDS011;67012;53.712;10.728;2023-03-01T10:29:13;13.43;;;8.30;;
77821;SDS011;67012;53.712;10.728;2023-03-01T10:31:41;16.85;;;10.13;;
77821;SDS011;67012;53.712;10.728;2023-03-01T10:34:09;16.15;;;8.30;;
77821;SDS011;67012;53.712;10.728;2023-03-01T10:36:35;21.63;;;12.38;;
77821;SDS011;67012;53.712;10.728;2023-03-01T10:39:00;26.00;;;13.73;;
77821;SDS011;67012;53.712;10.728;2023-03-01T10:41:28;56.47;;;25.58;;
77821;SDS011;67012;53.712;10.728;2023-03-01T10:43:57;57.83;;;25.80;;
77821;SDS011;67012;53.712;10.728;2023-03-01T10:46:33;55.72;;;23.80;;
77821;SDS011;67012;53.712;10.728;2023-03-01T10:51:43;20.10;;;10.05;;
77821;SDS011;67012;53.712;10.728;2023-03-01T10:54:19;26.17;;;13.15;;
77821;SDS011;67012;53.712;10.728;2023-03-01T10:56:48;17.83;;;8.40;;
77821;SDS011;67012;53.712;10.728;2023-03-01T10:59:27;12.27;;;6.82;;
77821;SDS011;67012;53.712;10.728;2023-03-01T11:04:26;9.00;;;4.72;;
77821;SDS011;67012;53.712;10.728;2023-03-01T11:06:58;8.17;;;4.83;;
77821;SDS011;67012;53.712;10.728;2023-03-01T11:09:23;7.10;;;4.13;;
77821;SDS011;67012;53.712;10.728;2023-03-01T11:11:55;12.18;;;6.35;;
77821;SDS011;67012;53.712;10.728;2023-03-01T11:14:22;15.32;;;8.00;;
77821;SDS011;67012;53.712;10.728;2023-03-01T11:16:48;9.07;;;5.30;;
77821;SDS011;67012;53.712;10.728;2023-03-01T11:19:15;8.15;;;5.53;;
77821;SDS011;67012;53.712;10.728;2023-03-01T11:21:55;36.60;;;13.93;;
77821;SDS011;67012;53.712;10.728;2023-03-01T11:24:23;16.10;;;11.98;;
77821;SDS011;67012;53.712;10.728;2023-03-01T11:26:52;4.55;;;3.30;;
77821;SDS011;67012;53.712;10.728;2023-03-01T11:29:21;11.60;;;6.35;;
77821;SDS011;67012;53.712;10.728;2023-03-01T11:31:50;2.30;;;1.30;;
77821;SDS011;67012;53.712;10.728;2023-03-01T11:34:37;5.55;;;3.35;;
77821;SDS011;67012;53.712;10.728;2023-03-01T11:37:07;2.17;;;1.58;;
77821;SDS011;67012;53.712;10.728;2023-03-01T11:39:37;9.90;;;6.68;;
77821;SDS011;67012;53.712;10.728;2023-03-01T11:44:29;5.27;;;3.30;;
77821;SDS011;67012;53.712;10.728;2023-03-01T11:49:33;5.78;;;3.35;;
77821;SDS011;67012;53.712;10.728;2023-03-01T12:05:18;6.73;;;4.67;;
77821;SDS011;67012;53.712;10.728;2023-03-01T12:10:20;6.25;;;3.40;;
77821;SDS011;67012;53.712;10.728;2023-03-01T12:12:49;2.83;;;2.42;;
77821;SDS011;67012;53.712;10.728;2023-03-01T12:25:58;3.30;;;1.90;;
77821;SDS011;67012;53.712;10.728;2023-03-01T12:30:58;6.07;;;3.38;;
77821;SDS011;67012;53.712;10.728;2023-03-01T12:33:35;6.10;;;3.65;;
77821;SDS011;67012;53.712;10.728;2023-03-01T12:38:41;3.95;;;2.80;;
77821;SDS011;67012;53.712;10.728;2023-03-01T12:46:10;7.30;;;3.80;;
77821;SDS011;67012;53.712;10.728;2023-03-01T12:51:03;3.40;;;2.67;;
77821;SDS011;67012;53.712;10.728;2023-03-01T12:53:31;6.97;;;3.45;;
77821;SDS011;67012;53.712;10.728;2023-03-01T12:55:59;5.05;;;2.80;;
77821;SDS011;67012;53.712;10.728;2023-03-01T13:03:53;12.60;;;6.88;;
77821;SDS011;67012;53.712;10.728;2023-03-01T13:08:59;5.95;;;3.38;;
77821;SDS011;67012;53.712;10.728;2023-03-01T13:11:26;4.03;;;2.72;;
77821;SDS011;67012;53.712;10.728;2023-03-01T13:13:52;8.83;;;4.37;;
77821;SDS011;67012;53.712;10.728;2023-03-01T13:16:41;6.53;;;4.00;;
77821;SDS011;67012;53.712;10.728;2023-03-01T13:19:24;6.38;;;3.45;;
77821;SDS011;67012;53.712;10.728;2023-03-01T13:21:50;8.80;;;5.22;;
77821;SDS011;67012;53.712;10.728;2023-03-01T13:29:52;5.47;;;3.42;;
77821;SDS011;67012;53.712;10.728;2023-03-01T13:32:22;9.32;;;4.15;;
77821;SDS011;67012;53.712;10.728;2023-03-01T13:34:51;3.92;;;3.15;;
77821;SDS011;67012;53.712;10.728;2023-03-01T13:37:30;4.18;;;2.90;;
77821;SDS011;67012;53.712;10.728;2023-03-01T13:40:00;4.68;;;3.13;;
77821;SDS011;67012;53.712;10.728;2023-03-01T13:42:34;3.30;;;3.00;;
77821;SDS011;67012;53.712;10.728;2023-03-01T13:45:00;4.72;;;3.40;;
77821;SDS011;67012;53.712;10.728;2023-03-01T13:47:25;5.50;;;3.63;;
77821;SDS011;67012;53.712;10.728;2023-03-01T13:49:59;8.63;;;4.53;;
77821;SDS011;67012;53.712;10.728;2023-03-01T13:52:44;5.28;;;4.13;;
77821;SDS011;67012;53.712;10.728;2023-03-01T13:55:56;5.35;;;3.72;;
77821;SDS011;67012;53.712;10.728;2023-03-01T13:57:56;4.72;;;3.38;;
77821;SDS011;67012;53.712;10.728;2023-03-01T14:00:33;8.45;;;5.10;;
77821;SDS011;67012;53.712;10.728;2023-03-01T14:02:59;4.80;;;3.10;;
77821;SDS011;67012;53.712;10.728;2023-03-01T14:05:25;7.47;;;4.80;;
77821;SDS011;67012;53.712;10.728;2023-03-01T14:07:51;7.60;;;3.80;;
77821;SDS011;67012;53.712;10.728;2023-03-01T14:10:16;4.93;;;3.60;;
77821;SDS011;67012;53.712;10.728;2023-03-01T14:12:55;5.25;;;3.78;;
77821;SDS011;67012;53.712;10.728;2023-03-01T14:15:36;4.95;;;3.90;;
77821;SDS011;67012;53.712;10.728;2023-03-01T14:18:18;5.95;;;4.03;;
77821;SDS011;67012;53.712;10.728;2023-03-01T14:20:45;6.18;;;4.32;;
77821;SDS011;67012;53.712;10.728;2023-03-01T14:23:17;5.30;;;4.50;;
77821;SDS011;67012;53.712;10.728;2023-03-01T14:25:51;7.03;;;4.55;;
77821;SDS011;67012;53.712;10.728;2023-03-01T14:28:24;8.63;;;4.82;;
77821;SDS011;67012;53.712;10.728;2023-03-01T14:30:51;7.25;;;5.32;;
77821;SDS011;67012;53.712;10.728;2023-03-01T14:33:18;10.40;;;6.22;;
77821;SDS011;67012;53.712;10.728;2023-03-01T14:35:51;7.97;;;4.85;;
77821;SDS011;67012;53.712;10.728;2023-03-01T14:38:20;12.40;;;7.10;;
77821;SDS011;67012;53.712;10.728;2023-03-01T14:40:46;11.82;;;6.35;;
77821;SDS011;67012;53.712;10.728;2023-03-01T14:43:21;8.55;;;6.15;;
77821;SDS011;67012;53.712;10.728;2023-03-01T14:45:48;7.38;;;5.07;;
77821;SDS011;67012;53.712;10.728;2023-03-01T14:48:14;6.53;;;5.28;;
77821;SDS011;67012;53.712;10.728;2023-03-01T14:50:41;6.63;;;4.72;;
77821;SDS011;67012;53.712;10.728;2023-03-01T14:53:06;6.53;;;4.38;;
77821;SDS011;67012;53.712;10.728;2023-03-01T14:55:34;7.88;;;4.68;;
77821;SDS011;67012;53.712;10.728;2023-03-01T14:58:02;6.82;;;5.18;;
77821;SDS011;67012;53.712;10.728;2023-03-01T15:00:29;6.47;;;4.60;;
77821;SDS011;67012;53.712;10.728;2023-03-01T15:02:56;6.50;;;4.57;;
77821;SDS011;67012;53.712;10.728;2023-03-01T15:07:50;6.50;;;4.43;;
77821;SDS011;67012;53.712;10.728;2023-03-01T15:10:23;7.40;;;5.13;;
77821;SDS011;67012;53.712;10.728;2023-03-01T15:12:49;6.93;;;4.07;;
77821;SDS011;67012;53.712;10.728;2023-03-01T15:17:54;14.15;;;7.88;;
77821;SDS011;67012;53.712;10.728;2023-03-01T15:20:20;14.23;;;8.68;;
77821;SDS011;67012;53.712;10.728;2023-03-01T15:22:50;14.98;;;9.23;;
77821;SDS011;67012;53.712;10.728;2023-03-01T15:25:16;15.83;;;8.97;;
77821;SDS011;67012;53.712;10.728;2023-03-01T15:27:45;16.00;;;9.95;;
77821;SDS011;67012;53.712;10.728;2023-03-01T15:30:17;14.65;;;8.63;;
77821;SDS011;67012;53.712;10.728;2023-03-01T15:32:43;14.98;;;9.10;;
77821;SDS011;67012;53.712;10.728;2023-03-01T15:37:53;13.20;;;9.85;;
77821;SDS011;67012;53.712;10.728;2023-03-01T15:42:49;14.38;;;9.05;;
77821;SDS011;67012;53.712;10.728;2023-03-01T15:47:49;17.25;;;9.82;;
77821;SDS011;67012;53.712;10.728;2023-03-01T15:50:22;12.95;;;8.80;;
77821;SDS011;67012;53.712;10.728;2023-03-01T15:52:48;12.38;;;8.32;;
77821;SDS011;67012;53.712;10.728;2023-03-01T15:55:18;12.13;;;8.20;;
77821;SDS011;67012;53.712;10.728;2023-03-01T15:57:44;13.18;;;8.25;;
77821;SDS011;67012;53.712;10.728;2023-03-01T16:00:10;14.23;;;8.60;;
77821;SDS011;67012;53.712;10.728;2023-03-01T16:02:38;12.75;;;8.82;;
77821;SDS011;67012;53.712;10.728;2023-03-01T16:05:03;14.10;;;9.00;;
77821;SDS011;67012;53.712;10.728;2023-03-01T16:07:29;13.32;;;8.98;;
77821;SDS011;67012;53.712;10.728;2023-03-01T16:09:56;15.73;;;9.80;;
77821;SDS011;67012;53.712;10.728;2023-03-01T16:12:21;15.93;;;9.82;;
77821;SDS011;67012;53.712;10.728;2023-03-01T16:14:46;17.67;;;11.43;;
77821;SDS011;67012;53.712;10.728;2023-03-01T16:17:13;16.02;;;10.07;;
77821;SDS011;67012;53.712;10.728;2023-03-01T16:19:39;15.57;;;9.20;;
77821;SDS011;67012;53.712;10.728;2023-03-01T16:22:05;16.80;;;9.55;;
77821;SDS011;67012;53.712;10.728;2023-03-01T16:24:31;16.80;;;9.83;;
77821;SDS011;67012;53.712;10.728;2023-03-01T16:26:56;6.70;;;4.43;;
77821;SDS011;67012;53.712;10.728;2023-03-01T16:29:21;17.90;;;12.07;;
77821;SDS011;67012;53.712;10.728;2023-03-01T16:31:46;17.97;;;11.03;;
77821;SDS011;67012;53.712;10.728;2023-03-01T16:34:12;20.77;;;13.70;;
77821;SDS011;67012;53.712;10.728;2023-03-01T16:36:37;19.10;;;10.83;;
77821;SDS011;67012;53.712;10.728;2023-03-01T16:39:03;15.77;;;10.30;;
77821;SDS011;67012;53.712;10.728;2023-03-01T16:41:28;18.92;;;11.57;;
77821;SDS011;67012;53.712;10.728;2023-03-01T16:43:54;19.13;;;11.33;;
77821;SDS011;67012;53.712;10.728;2023-03-01T16:46:20;17.33;;;10.63;;
77821;SDS011;67012;53.712;10.728;2023-03-01T16:48:46;25.42;;;16.73;;
77821;SDS011;67012;53.712;10.728;2023-03-01T16:51:11;19.02;;;10.55;;
77821;SDS011;67012;53.712;10.728;2023-03-01T16:53:37;22.08;;;11.15;;
77821;SDS011;67012;53.712;10.728;2023-03-01T16:56:04;19.23;;;10.35;;
77821;SDS011;67012;53.712;10.728;2023-03-01T16:58:30;19.45;;;10.20;;
77821;SDS011;67012;53.712;10.728;2023-03-01T17:00:55;22.63;;;10.85;;
77821;SDS011;67012;53.712;10.728;2023-03-01T17:03:21;27.17;;;15.32;;
77821;SDS011;67012;53.712;10.728;2023-03-01T17:05:47;24.83;;;14.35;;
77821;SDS011;67012;53.712;10.728;2023-03-01T17:08:12;24.73;;;12.93;;
77821;SDS011;67012;53.712;10.728;2023-03-01T17:10:37;26.40;;;14.67;;
77821;SDS011;67012;53.712;10.728;2023-03-01T17:13:02;19.17;;;10.80;;
77821;SDS011;67012;53.712;10.728;2023-03-01T17:15:28;17.67;;;9.98;;
77821;SDS011;67012;53.712;10.728;2023-03-01T17:17:53;22.33;;;11.23;;
77821;SDS011;67012;53.712;10.728;2023-03-01T17:20:19;20.37;;;10.43;;
77821;SDS011;67012;53.712;10.728;2023-03-01T17:22:44;14.63;;;8.40;;
77821;SDS011;67012;53.712;10.728;2023-03-01T17:25:09;17.60;;;10.07;;
77821;SDS011;67012;53.712;10.728;2023-03-01T17:27:38;22.90;;;14.52;;
77821;SDS011;67012;53.712;10.728;2023-03-01T17:30:04;27.15;;;14.82;;
77821;SDS011;67012;53.712;10.728;2023-03-01T17:32:30;14.40;;;8.60;;
77821;SDS011;67012;53.712;10.728;2023-03-01T17:34:55;14.73;;;8.00;;
77821;SDS011;67012;53.712;10.728;2023-03-01T17:37:20;13.67;;;8.87;;
77821;SDS011;67012;53.712;10.728;2023-03-01T17:39:45;13.47;;;8.27;;
77821;SDS011;67012;53.712;10.728;2023-03-01T17:42:11;11.03;;;5.97;;
77821;SDS011;67012;53.712;10.728;2023-03-01T17:44:36;17.43;;;9.57;;
77821;SDS011;67012;53.712;10.728;2023-03-01T17:47:02;19.42;;;10.55;;
77821;SDS011;67012;53.712;10.728;2023-03-01T17:49:27;18.02;;;10.18;;
77821;SDS011;67012;53.712;10.728;2023-03-01T17:51:53;13.90;;;8.30;;
77821;SDS011;67012;53.712;10.728;2023-03-01T17:54:18;16.07;;;8.83;;
77821;SDS011;67012;53.712;10.728;2023-03-01T17:56:43;17.07;;;8.70;;
77821;SDS011;67012;53.712;10.728;2023-03-01T17:59:08;15.33;;;9.40;;
77821;SDS011;67012;53.712;10.728;2023-03-01T18:01:33;20.67;;;12.93;;
77821;SDS011;67012;53.712;10.728;2023-03-01T18:04:02;17.17;;;9.60;;
77821;SDS011;67012;53.712;10.728;2023-03-01T18:06:28;16.83;;;8.43;;
77821;SDS011;67012;53.712;10.728;2023-03-01T18:08:53;16.00;;;7.15;;
77821;SDS011;67012;53.712;10.728;2023-03-01T18:11:19;15.15;;;7.60;;
77821;SDS011;67012;53.712;10.728;2023-03-01T18:13:45;17.70;;;7.80;;
77821;SDS011;67012;53.712;10.728;2023-03-01T18:16:13;12.30;;;6.57;;
77821;SDS011;67012;53.712;10.728;2023-03-01T18:18:38;15.45;;;7.38;;
77821;SDS011;67012;53.712;10.728;2023-03-01T18:21:04;13.00;;;8.77;;
77821;SDS011;67012;53.712;10.728;2023-03-01T18:23:30;19.15;;;10.35;;
77821;SDS011;67012;53.712;10.728;2023-03-01T18:26:09;19.30;;;8.50;;
77821;SDS011;67012;53.712;10.728;2023-03-01T18:28:35;18.23;;;9.20;;
77821;SDS011;67012;53.712;10.728;2023-03-01T18:31:06;23.50;;;9.90;;
77821;SDS011;67012;53.712;10.728;2023-03-01T18:33:32;23.02;;;11.00;;
77821;SDS011;67012;53.712;10.728;2023-03-01T18:35:57;15.73;;;9.27;;
77821;SDS011;67012;53.712;10.728;2023-03-01T18:38:23;15.57;;;8.27;;
77821;SDS011;67012;53.712;10.728;2023-03-01T18:40:49;14.07;;;8.15;;
77821;SDS011;67012;53.712;10.728;2023-03-01T18:43:15;11.27;;;5.80;;
77821;SDS011;67012;53.712;10.728;2023-03-01T18:45:40;11.60;;;6.27;;
77821;SDS011;67012;53.712;10.728;2023-03-01T18:48:06;19.50;;;8.90;;
77821;SDS011;67012;53.712;10.728;2023-03-01T18:50:31;21.13;;;8.47;;
77821;SDS011;67012;53.712;10.728;2023-03-01T18:52:57;13.83;;;6.63;;
77821;SDS011;67012;53.712;10.728;2023-03-01T18:55:22;14.25;;;7.38;;
77821;SDS011;67012;53.712;10.728;2023-03-01T18:57:47;17.13;;;8.37;;
77821;SDS011;67012;53.712;10.728;2023-03-01T19:00:12;17.53;;;7.73;;
77821;SDS011;67012;53.712;10.728;2023-03-01T19:02:38;14.55;;;7.18;;
77821;SDS011;67012;53.712;10.728;2023-03-01T19:05:03;11.60;;;5.97;;
77821;SDS011;67012;53.712;10.728;2023-03-01T19:07:28;15.50;;;6.95;;
77821;SDS011;67012;53.712;10.728;2023-03-01T19:09:54;13.47;;;7.47;;
77821;SDS011;67012;53.712;10.728;2023-03-01T19:12:19;19.43;;;8.77;;
77821;SDS011;67012;53.712;10.728;2023-03-01T19:14:44;18.20;;;8.57;;
77821;SDS011;67012;53.712;10.728;2023-03-01T19:17:09;18.90;;;8.13;;
77821;SDS011;67012;53.712;10.728;2023-03-01T19:19:34;25.37;;;8.90;;
77821;SDS011;67012;53.712;10.728;2023-03-01T19:22:00;14.00;;;7.05;;
77821;SDS011;67012;53.712;10.728;2023-03-01T19:24:25;18.92;;;7.90;;
77821;SDS011;67012;53.712;10.728;2023-03-01T19:26:52;14.47;;;7.50;;
77821;SDS011;67012;53.712;10.728;2023-03-01T19:29:17;14.77;;;7.18;;
77821;SDS011;67012;53.712;10.728;2023-03-01T19:31:43;21.17;;;7.43;;
77821;SDS011;67012;53.712;10.728;2023-03-01T19:34:08;20.90;;;7.97;;
77821;SDS011;67012;53.712;10.728;2023-03-01T19:36:33;13.33;;;7.20;;
77821;SDS011;67012;53.712;10.728;2023-03-01T19:39:03;22.35;;;7.75;;
77821;SDS011;67012;53.712;10.728;2023-03-01T19:41:28;12.30;;;6.40;;
77821;SDS011;67012;53.712;10.728;2023-03-01T19:43:53;23.67;;;9.00;;
77821;SDS011;67012;53.712;10.728;2023-03-01T19:46:19;21.25;;;7.35;;
77821;SDS011;67012;53.712;10.728;2023-03-01T19:48:44;19.60;;;7.13;;
77821;SDS011;67012;53.712;10.728;2023-03-01T19:51:09;12.00;;;5.97;;
77821;SDS011;67012;53.712;10.728;2023-03-01T19:53:35;14.13;;;7.28;;
77821;SDS011;67012;53.712;10.728;2023-03-01T19:56:01;12.43;;;6.15;;
77821;SDS011;67012;53.712;10.728;2023-03-01T19:58:27;22.60;;;7.05;;
77821;SDS011;67012;53.712;10.728;2023-03-01T20:00:53;17.45;;;6.53;;
77821;SDS011;67012;53.712;10.728;2023-03-01T20:03:44;14.88;;;6.47;;
77821;SDS011;67012;53.712;10.728;2023-03-01T20:06:15;15.90;;;6.80;;
77821;SDS011;67012;53.712;10.728;2023-03-01T20:08:41;7.95;;;5.28;;
77821;SDS011;67012;53.712;10.728;2023-03-01T20:11:07;15.20;;;7.80;;
77821;SDS011;67012;53.712;10.728;2023-03-01T20:13:32;19.77;;;6.65;;
77821;SDS011;67012;53.712;10.728;2023-03-01T20:15:58;17.85;;;7.43;;
77821;SDS011;67012;53.712;10.728;2023-03-01T20:18:23;13.00;;;6.47;;
77821;SDS011;67012;53.712;10.728;2023-03-01T20:20:49;14.18;;;6.20;;
77821;SDS011;67012;53.712;10.728;2023-03-01T20:23:14;10.90;;;5.82;;
77821;SDS011;67012;53.712;10.728;2023-03-01T20:25:39;13.98;;;6.50;;
77821;SDS011;67012;53.712;10.728;2023-03-01T20:28:05;12.00;;;5.87;;
77821;SDS011;67012;53.712;10.728;2023-03-01T20:30:30;11.37;;;6.20;;
77821;SDS011;67012;53.712;10.728;2023-03-01T20:32:55;15.23;;;7.77;;
77821;SDS011;67012;53.712;10.728;2023-03-01T20:35:20;17.30;;;7.70;;
77821;SDS011;67012;53.712;10.728;2023-03-01T20:37:45;11.33;;;5.73;;
77821;SDS011;67012;53.712;10.728;2023-03-01T20:40:11;16.83;;;6.90;;
77821;SDS011;67012;53.712;10.728;2023-03-01T20:42:36;17.23;;;6.88;;
77821;SDS011;67012;53.712;10.728;2023-03-01T20:45:02;14.63;;;6.30;;
77821;SDS011;67012;53.712;10.728;2023-03-01T20:47:27;22.25;;;7.40;;
